sensor_id;sensor_type;location;lat;lon;timestamp;P1;durP1;ratioP1;P2;durP2;ratioP2
37677;SDS011;23517;50.390;8.616;2023-02-03T00:01:49;7.13;;;1.98;;
37677;SDS011;23517;50.390;8.616;2023-02-03T00:04:16;4.53;;;2.08;;
37677;SDS011;23517;50.390;8.616;2023-02-03T00:06:42;6.97;;;1.77;;
37677;SDS011;23517;50.390;8.616;2023-02-03T00:09:09;8.18;;;2.30;;
37677;SDS011;23517;50.390;8.616;2023-02-03T00:11:36;7.07;;;2.10;;
37677;SDS011;23517;50.390;8.616;2023-02-03T00:14:03;4.72;;;1.85;;
37677;SDS011;23517;50.390;8.616;2023-02-03T00:16:33;5.00;;;2.25;;
37677;SDS011;23517;50.390;8.616;2023-02-03T00:19:00;6.10;;;2.28;;
37677;SDS011;23517;50.390;8.616;2023-02-03T00:21:27;6.68;;;2.45;;
37677;SDS011;23517;50.390;8.616;2023-02-03T00:23:54;5.82;;;2.10;;
37677;SDS011;23517;50.390;8.616;2023-02-03T00:26:21;4.30;;;1.75;;
37677;SDS011;23517;50.390;8.616;2023-02-03T00:28:50;6.38;;;1.85;;
37677;SDS011;23517;50.390;8.616;2023-02-03T00:31:17;4.25;;;1.90;;
37677;SDS011;23517;50.390;8.616;2023-02-03T00:33:47;4.95;;;1.73;;
37677;SDS011;23517;50.390;8.616;2023-02-03T00:36:23;8.27;;;2.88;;
37677;SDS011;23517;50.390;8.616;2023-02-03T00:38:54;3.28;;;1.60;;
37677;SDS011;23517;50.390;8.616;2023-02-03T00:41:21;5.72;;;2.08;;
37677;SDS011;23517;50.390;8.616;2023-02-03T00:43:48;7.68;;;1.77;;
37677;SDS011;23517;50.390;8.616;2023-02-03T00:46:15;4.03;;;1.92;;
37677;SDS011;23517;50.390;8.616;2023-02-03T00:48:42;6.97;;;1.90;;
37677;SDS011;23517;50.390;8.616;2023-02-03T00:51:08;4.75;;;1.67;;
37677;SDS011;23517;50.390;8.616;2023-02-03T00:53:35;5.60;;;1.75;;
37677;SDS011;23517;50.390;8.616;2023-02-03T00:56:02;3.22;;;1.60;;
37677;SDS011;23517;50.390;8.616;2023-02-03T00:58:29;4.22;;;2.30;;
37677;SDS011;23517;50.390;8.616;2023-02-03T01:00:55;5.22;;;1.58;;
37677;SDS011;23517;50.390;8.616;2023-02-03T01:03:22;6.88;;;2.10;;
37677;SDS011;23517;50.390;8.616;2023-02-03T01:05:49;4.55;;;1.80;;
37677;SDS011;23517;50.390;8.616;2023-02-03T01:08:16;3.20;;;1.55;;
37677;SDS011;23517;50.390;8.616;2023-02-03T01:10:43;5.32;;;2.00;;
37677;SDS011;23517;50.390;8.616;2023-02-03T01:13:09;5.03;;;1.73;;
37677;SDS011;23517;50.390;8.616;2023-02-03T01:15:36;3.53;;;1.80;;
37677;SDS011;23517;50.390;8.616;2023-02-03T01:18:02;3.17;;;1.65;;
37677;SDS011;23517;50.390;8.616;2023-02-03T01:20:30;2.13;;;1.60;;
37677;SDS011;23517;50.390;8.616;2023-02-03T01:22:57;2.00;;;1.40;;
37677;SDS011;23517;50.390;8.616;2023-02-03T01:25:23;2.30;;;1.65;;
37677;SDS011;23517;50.390;8.616;2023-02-03T01:27:50;5.10;;;1.73;;
37677;SDS011;23517;50.390;8.616;2023-02-03T01:30:17;3.50;;;1.70;;
37677;SDS011;23517;50.390;8.616;2023-02-03T01:32:44;3.22;;;1.70;;
37677;SDS011;23517;50.390;8.616;2023-02-03T01:35:10;4.75;;;1.88;;
37677;SDS011;23517;50.390;8.616;2023-02-03T01:37:37;4.70;;;1.85;;
37677;SDS011;23517;50.390;8.616;2023-02-03T01:40:04;3.53;;;2.08;;
37677;SDS011;23517;50.390;8.616;2023-02-03T01:42:31;5.32;;;1.83;;
37677;SDS011;23517;50.390;8.616;2023-02-03T01:44:59;4.38;;;1.70;;
37677;SDS011;23517;50.390;8.616;2023-02-03T01:50:17;2.10;;;1.40;;
37677;SDS011;23517;50.390;8.616;2023-02-03T01:52:50;4.05;;;1.83;;
37677;SDS011;23517;50.390;8.616;2023-02-03T01:55:28;4.90;;;1.67;;
37677;SDS011;23517;50.390;8.616;2023-02-03T01:58:05;4.47;;;1.80;;
37677;SDS011;23517;50.390;8.616;2023-02-03T02:01:03;3.75;;;2.15;;
37677;SDS011;23517;50.390;8.616;2023-02-03T02:03:31;3.22;;;1.95;;
37677;SDS011;23517;50.390;8.616;2023-02-03T02:06:05;4.20;;;1.80;;
37677;SDS011;23517;50.390;8.616;2023-02-03T02:08:35;3.53;;;1.50;;
37677;SDS011;23517;50.390;8.616;2023-02-03T02:11:04;6.25;;;1.85;;
37677;SDS011;23517;50.390;8.616;2023-02-03T02:13:32;4.28;;;1.70;;
37677;SDS011;23517;50.390;8.616;2023-02-03T02:16:04;3.92;;;1.77;;
37677;SDS011;23517;50.390;8.616;2023-02-03T02:27:57;3.80;;;1.67;;
37677;SDS011;23517;50.390;8.616;2023-02-03T02:31:05;1.88;;;1.27;;
37677;SDS011;23517;50.390;8.616;2023-02-03T02:34:45;4.20;;;1.80;;
37677;SDS011;23517;50.390;8.616;2023-02-03T02:37:05;3.22;;;1.55;;
37677;SDS011;23517;50.390;8.616;2023-02-03T02:39:46;6.63;;;1.85;;
37677;SDS011;23517;50.390;8.616;2023-02-03T02:42:27;4.28;;;1.70;;
37677;SDS011;23517;50.390;8.616;2023-02-03T02:45:35;3.33;;;1.63;;
37677;SDS011;23517;50.390;8.616;2023-02-03T02:51:17;2.05;;;1.35;;
37677;SDS011;23517;50.390;8.616;2023-02-03T02:53:53;4.78;;;1.85;;
37677;SDS011;23517;50.390;8.616;2023-02-03T02:56:28;4.07;;;1.63;;
37677;SDS011;23517;50.390;8.616;2023-02-03T02:58:57;3.10;;;1.70;;
37677;SDS011;23517;50.390;8.616;2023-02-03T03:01:27;5.00;;;1.40;;
37677;SDS011;23517;50.390;8.616;2023-02-03T03:03:54;4.43;;;2.10;;
37677;SDS011;23517;50.390;8.616;2023-02-03T03:06:25;3.40;;;1.50;;
37677;SDS011;23517;50.390;8.616;2023-02-03T03:08:59;4.82;;;1.40;;
37677;SDS011;23517;50.390;8.616;2023-02-03T03:11:32;2.42;;;1.40;;
37677;SDS011;23517;50.390;8.616;2023-02-03T03:14:04;2.55;;;1.60;;
37677;SDS011;23517;50.390;8.616;2023-02-03T03:16:33;6.70;;;1.50;;
37677;SDS011;23517;50.390;8.616;2023-02-03T03:19:05;4.38;;;1.42;;
37677;SDS011;23517;50.390;8.616;2023-02-03T03:21:39;3.35;;;1.30;;
37677;SDS011;23517;50.390;8.616;2023-02-03T03:24:14;2.97;;;1.40;;
37677;SDS011;23517;50.390;8.616;2023-02-03T03:26:51;5.00;;;1.55;;
37677;SDS011;23517;50.390;8.616;2023-02-03T03:29:41;4.35;;;1.50;;
37677;SDS011;23517;50.390;8.616;2023-02-03T03:32:19;2.97;;;1.30;;
37677;SDS011;23517;50.390;8.616;2023-02-03T03:34:46;2.72;;;1.00;;
37677;SDS011;23517;50.390;8.616;2023-02-03T03:37:15;6.10;;;1.60;;
37677;SDS011;23517;50.390;8.616;2023-02-03T03:39:55;4.43;;;1.65;;
37677;SDS011;23517;50.390;8.616;2023-02-03T03:42:30;3.75;;;1.50;;
37677;SDS011;23517;50.390;8.616;2023-02-03T03:45:18;5.57;;;1.35;;
37677;SDS011;23517;50.390;8.616;2023-02-03T03:50:37;4.10;;;1.25;;
37677;SDS011;23517;50.390;8.616;2023-02-03T03:53:16;3.15;;;1.30;;
37677;SDS011;23517;50.390;8.616;2023-02-03T03:55:46;3.88;;;1.50;;
37677;SDS011;23517;50.390;8.616;2023-02-03T03:58:17;3.13;;;1.40;;
37677;SDS011;23517;50.390;8.616;2023-02-03T04:00:49;3.50;;;1.25;;
37677;SDS011;23517;50.390;8.616;2023-02-03T04:03:22;3.58;;;1.30;;
37677;SDS011;23517;50.390;8.616;2023-02-03T04:05:55;5.45;;;1.40;;
37677;SDS011;23517;50.390;8.616;2023-02-03T04:08:22;2.83;;;1.13;;
37677;SDS011;23517;50.390;8.616;2023-02-03T04:10:48;5.15;;;1.30;;
37677;SDS011;23517;50.390;8.616;2023-02-03T04:13:15;4.35;;;1.42;;
37677;SDS011;23517;50.390;8.616;2023-02-03T04:15:45;2.25;;;0.90;;
37677;SDS011;23517;50.390;8.616;2023-02-03T04:18:12;3.70;;;1.13;;
37677;SDS011;23517;50.390;8.616;2023-02-03T04:20:40;5.03;;;1.00;;
37677;SDS011;23517;50.390;8.616;2023-02-03T04:23:07;2.67;;;1.00;;
37677;SDS011;23517;50.390;8.616;2023-02-03T04:25:35;2.55;;;0.95;;
37677;SDS011;23517;50.390;8.616;2023-02-03T04:28:01;3.03;;;1.08;;
37677;SDS011;23517;50.390;8.616;2023-02-03T04:30:28;1.50;;;0.90;;
37677;SDS011;23517;50.390;8.616;2023-02-03T04:32:55;2.65;;;0.90;;
37677;SDS011;23517;50.390;8.616;2023-02-03T04:35:22;3.42;;;0.90;;
37677;SDS011;23517;50.390;8.616;2023-02-03T04:37:49;2.78;;;1.00;;
37677;SDS011;23517;50.390;8.616;2023-02-03T04:40:15;2.70;;;1.13;;
37677;SDS011;23517;50.390;8.616;2023-02-03T04:42:42;2.05;;;0.80;;
37677;SDS011;23517;50.390;8.616;2023-02-03T04:45:10;3.00;;;1.20;;
37677;SDS011;23517;50.390;8.616;2023-02-03T04:47:38;3.50;;;1.25;;
37677;SDS011;23517;50.390;8.616;2023-02-03T04:50:05;2.85;;;0.90;;
37677;SDS011;23517;50.390;8.616;2023-02-03T04:52:39;4.07;;;1.30;;
37677;SDS011;23517;50.390;8.616;2023-02-03T04:55:06;2.95;;;1.35;;
37677;SDS011;23517;50.390;8.616;2023-02-03T04:57:33;2.03;;;1.13;;
37677;SDS011;23517;50.390;8.616;2023-02-03T04:59:59;2.08;;;1.08;;
37677;SDS011;23517;50.390;8.616;2023-02-03T05:02:27;1.30;;;0.80;;
37677;SDS011;23517;50.390;8.616;2023-02-03T05:04:53;1.15;;;0.85;;
37677;SDS011;23517;50.390;8.616;2023-02-03T05:07:20;2.33;;;1.20;;
37677;SDS011;23517;50.390;8.616;2023-02-03T05:09:47;1.05;;;0.88;;
37677;SDS011;23517;50.390;8.616;2023-02-03T05:12:16;1.17;;;0.85;;
37677;SDS011;23517;50.390;8.616;2023-02-03T05:14:43;3.05;;;1.00;;
37677;SDS011;23517;50.390;8.616;2023-02-03T05:17:10;2.58;;;0.80;;
37677;SDS011;23517;50.390;8.616;2023-02-03T05:19:36;5.97;;;1.40;;
37677;SDS011;23517;50.390;8.616;2023-02-03T05:22:03;2.42;;;1.00;;
37677;SDS011;23517;50.390;8.616;2023-02-03T05:24:30;2.90;;;1.17;;
37677;SDS011;23517;50.390;8.616;2023-02-03T05:26:57;3.28;;;1.10;;
37677;SDS011;23517;50.390;8.616;2023-02-03T05:29:24;3.22;;;0.93;;
37677;SDS011;23517;50.390;8.616;2023-02-03T05:31:50;1.98;;;1.00;;
37677;SDS011;23517;50.390;8.616;2023-02-03T05:34:17;2.95;;;1.00;;
37677;SDS011;23517;50.390;8.616;2023-02-03T05:36:44;3.63;;;1.35;;
37677;SDS011;23517;50.390;8.616;2023-02-03T05:39:10;3.47;;;1.08;;
37677;SDS011;23517;50.390;8.616;2023-02-03T05:41:37;2.60;;;1.13;;
37677;SDS011;23517;50.390;8.616;2023-02-03T05:44:23;3.30;;;1.00;;
37677;SDS011;23517;50.390;8.616;2023-02-03T05:46:52;1.50;;;0.98;;
37677;SDS011;23517;50.390;8.616;2023-02-03T05:49:21;3.95;;;1.02;;
37677;SDS011;23517;50.390;8.616;2023-02-03T05:51:49;4.95;;;1.00;;
37677;SDS011;23517;50.390;8.616;2023-02-03T05:54:17;2.70;;;0.90;;
37677;SDS011;23517;50.390;8.616;2023-02-03T05:56:44;3.08;;;1.15;;
37677;SDS011;23517;50.390;8.616;2023-02-03T05:59:10;1.63;;;1.13;;
37677;SDS011;23517;50.390;8.616;2023-02-03T06:01:37;1.75;;;0.90;;
37677;SDS011;23517;50.390;8.616;2023-02-03T06:04:05;5.60;;;1.10;;
37677;SDS011;23517;50.390;8.616;2023-02-03T06:06:32;3.88;;;1.25;;
37677;SDS011;23517;50.390;8.616;2023-02-03T06:09:00;4.00;;;1.10;;
37677;SDS011;23517;50.390;8.616;2023-02-03T06:11:32;3.60;;;1.02;;
37677;SDS011;23517;50.390;8.616;2023-02-03T06:14:01;2.90;;;1.10;;
37677;SDS011;23517;50.390;8.616;2023-02-03T06:16:28;3.65;;;1.30;;
37677;SDS011;23517;50.390;8.616;2023-02-03T06:18:55;2.47;;;1.33;;
37677;SDS011;23517;50.390;8.616;2023-02-03T06:21:24;2.67;;;1.05;;
37677;SDS011;23517;50.390;8.616;2023-02-03T06:23:52;2.40;;;0.90;;
37677;SDS011;23517;50.390;8.616;2023-02-03T06:26:20;2.33;;;1.00;;
37677;SDS011;23517;50.390;8.616;2023-02-03T06:28:47;1.30;;;0.90;;
37677;SDS011;23517;50.390;8.616;2023-02-03T06:31:14;3.05;;;1.23;;
37677;SDS011;23517;50.390;8.616;2023-02-03T06:33:41;2.10;;;1.13;;
37677;SDS011;23517;50.390;8.616;2023-02-03T06:36:07;5.25;;;1.42;;
37677;SDS011;23517;50.390;8.616;2023-02-03T06:38:34;3.67;;;1.13;;
37677;SDS011;23517;50.390;8.616;2023-02-03T06:41:01;3.53;;;1.00;;
37677;SDS011;23517;50.390;8.616;2023-02-03T06:43:28;2.88;;;0.98;;
37677;SDS011;23517;50.390;8.616;2023-02-03T06:45:54;1.67;;;0.90;;
37677;SDS011;23517;50.390;8.616;2023-02-03T06:48:21;1.45;;;1.05;;
37677;SDS011;23517;50.390;8.616;2023-02-03T06:50:48;4.43;;;0.98;;
37677;SDS011;23517;50.390;8.616;2023-02-03T06:53:15;1.90;;;1.00;;
37677;SDS011;23517;50.390;8.616;2023-02-03T06:55:42;4.40;;;1.27;;
37677;SDS011;23517;50.390;8.616;2023-02-03T06:58:09;3.55;;;0.90;;
37677;SDS011;23517;50.390;8.616;2023-02-03T07:00:36;4.28;;;1.00;;
37677;SDS011;23517;50.390;8.616;2023-02-03T07:03:03;2.97;;;1.27;;
37677;SDS011;23517;50.390;8.616;2023-02-03T07:05:29;6.47;;;1.50;;
37677;SDS011;23517;50.390;8.616;2023-02-03T07:07:56;2.80;;;1.05;;
37677;SDS011;23517;50.390;8.616;2023-02-03T07:10:24;3.85;;;1.02;;
37677;SDS011;23517;50.390;8.616;2023-02-03T07:12:50;3.45;;;1.17;;
37677;SDS011;23517;50.390;8.616;2023-02-03T07:15:20;4.85;;;0.95;;
37677;SDS011;23517;50.390;8.616;2023-02-03T07:17:47;2.47;;;1.00;;
37677;SDS011;23517;50.390;8.616;2023-02-03T07:20:20;3.55;;;1.00;;
37677;SDS011;23517;50.390;8.616;2023-02-03T07:22:55;2.72;;;0.98;;
37677;SDS011;23517;50.390;8.616;2023-02-03T07:25:23;1.58;;;0.73;;
37677;SDS011;23517;50.390;8.616;2023-02-03T07:27:51;3.90;;;1.42;;
37677;SDS011;23517;50.390;8.616;2023-02-03T07:30:18;5.65;;;1.30;;
37677;SDS011;23517;50.390;8.616;2023-02-03T07:32:48;3.60;;;1.10;;
37677;SDS011;23517;50.390;8.616;2023-02-03T07:35:16;2.28;;;1.10;;
37677;SDS011;23517;50.390;8.616;2023-02-03T07:37:43;2.72;;;1.00;;
37677;SDS011;23517;50.390;8.616;2023-02-03T07:40:10;4.95;;;1.10;;
37677;SDS011;23517;50.390;8.616;2023-02-03T07:42:42;2.05;;;0.88;;
37677;SDS011;23517;50.390;8.616;2023-02-03T07:45:10;2.58;;;0.95;;
37677;SDS011;23517;50.390;8.616;2023-02-03T07:47:42;2.63;;;0.73;;
37677;SDS011;23517;50.390;8.616;2023-02-03T07:50:10;2.58;;;0.98;;
37677;SDS011;23517;50.390;8.616;2023-02-03T07:52:37;1.33;;;0.85;;
37677;SDS011;23517;50.390;8.616;2023-02-03T07:55:05;2.65;;;1.10;;
37677;SDS011;23517;50.390;8.616;2023-02-03T07:57:32;4.03;;;1.05;;
37677;SDS011;23517;50.390;8.616;2023-02-03T07:59:59;1.75;;;0.90;;
37677;SDS011;23517;50.390;8.616;2023-02-03T08:02:26;2.70;;;0.80;;
37677;SDS011;23517;50.390;8.616;2023-02-03T08:04:53;4.50;;;1.08;;
37677;SDS011;23517;50.390;8.616;2023-02-03T08:07:23;3.53;;;0.88;;
37677;SDS011;23517;50.390;8.616;2023-02-03T08:09:49;3.83;;;1.00;;
37677;SDS011;23517;50.390;8.616;2023-02-03T08:12:16;1.50;;;0.80;;
37677;SDS011;23517;50.390;8.616;2023-02-03T08:14:42;2.90;;;0.90;;
37677;SDS011;23517;50.390;8.616;2023-02-03T08:17:09;3.70;;;1.05;;
37677;SDS011;23517;50.390;8.616;2023-02-03T08:19:36;3.08;;;0.93;;
37677;SDS011;23517;50.390;8.616;2023-02-03T08:22:02;4.40;;;0.88;;
37677;SDS011;23517;50.390;8.616;2023-02-03T08:24:29;10.23;;;1.27;;
37677;SDS011;23517;50.390;8.616;2023-02-03T08:26:56;3.05;;;0.70;;
37677;SDS011;23517;50.390;8.616;2023-02-03T08:29:22;5.38;;;0.80;;
37677;SDS011;23517;50.390;8.616;2023-02-03T08:31:49;3.65;;;0.93;;
37677;SDS011;23517;50.390;8.616;2023-02-03T08:34:16;2.22;;;0.88;;
37677;SDS011;23517;50.390;8.616;2023-02-03T08:36:42;4.00;;;1.00;;
37677;SDS011;23517;50.390;8.616;2023-02-03T08:39:09;2.92;;;0.95;;
37677;SDS011;23517;50.390;8.616;2023-02-03T08:41:42;2.33;;;0.90;;
37677;SDS011;23517;50.390;8.616;2023-02-03T08:44:08;2.42;;;0.85;;
37677;SDS011;23517;50.390;8.616;2023-02-03T08:46:37;3.58;;;0.98;;
37677;SDS011;23517;50.390;8.616;2023-02-03T08:49:09;2.72;;;1.00;;
37677;SDS011;23517;50.390;8.616;2023-02-03T08:51:35;3.45;;;0.98;;
37677;SDS011;23517;50.390;8.616;2023-02-03T08:54:02;1.67;;;0.73;;
37677;SDS011;23517;50.390;8.616;2023-02-03T08:56:29;4.10;;;0.80;;
37677;SDS011;23517;50.390;8.616;2023-02-03T08:58:55;3.72;;;1.23;;
37677;SDS011;23517;50.390;8.616;2023-02-03T09:01:25;2.88;;;1.10;;
37677;SDS011;23517;50.390;8.616;2023-02-03T09:03:52;5.05;;;1.48;;
37677;SDS011;23517;50.390;8.616;2023-02-03T09:06:19;2.33;;;0.65;;
37677;SDS011;23517;50.390;8.616;2023-02-03T09:08:50;1.80;;;0.60;;
37677;SDS011;23517;50.390;8.616;2023-02-03T09:11:17;1.85;;;0.90;;
37677;SDS011;23517;50.390;8.616;2023-02-03T09:13:44;2.17;;;0.63;;
37677;SDS011;23517;50.390;8.616;2023-02-03T09:16:11;3.35;;;0.68;;
37677;SDS011;23517;50.390;8.616;2023-02-03T09:18:42;1.23;;;0.63;;
37677;SDS011;23517;50.390;8.616;2023-02-03T09:21:10;2.58;;;1.02;;
37677;SDS011;23517;50.390;8.616;2023-02-03T09:23:52;3.80;;;0.80;;
37677;SDS011;23517;50.390;8.616;2023-02-03T09:26:19;2.35;;;0.70;;
37677;SDS011;23517;50.390;8.616;2023-02-03T09:28:46;2.25;;;0.80;;
37677;SDS011;23517;50.390;8.616;2023-02-03T09:31:13;3.38;;;0.80;;
37677;SDS011;23517;50.390;8.616;2023-02-03T09:33:43;5.18;;;0.77;;
37677;SDS011;23517;50.390;8.616;2023-02-03T09:36:10;3.67;;;1.08;;
37677;SDS011;23517;50.390;8.616;2023-02-03T09:38:38;3.30;;;1.25;;
37677;SDS011;23517;50.390;8.616;2023-02-03T09:43:42;3.47;;;0.82;;
37677;SDS011;23517;50.390;8.616;2023-02-03T09:49:01;4.30;;;0.90;;
37677;SDS011;23517;50.390;8.616;2023-02-03T09:51:40;3.97;;;1.13;;
37677;SDS011;23517;50.390;8.616;2023-02-03T09:54:22;1.77;;;0.70;;
37677;SDS011;23517;50.390;8.616;2023-02-03T09:57:13;3.83;;;1.05;;
37677;SDS011;23517;50.390;8.616;2023-02-03T09:59:48;2.78;;;0.90;;
37677;SDS011;23517;50.390;8.616;2023-02-03T10:05:21;4.78;;;0.80;;
37677;SDS011;23517;50.390;8.616;2023-02-03T10:08:19;5.43;;;1.00;;
37677;SDS011;23517;50.390;8.616;2023-02-03T10:11:21;8.63;;;0.90;;
37677;SDS011;23517;50.390;8.616;2023-02-03T10:17:29;2.25;;;1.00;;
37677;SDS011;23517;50.390;8.616;2023-02-03T10:22:33;1.63;;;0.80;;
37677;SDS011;23517;50.390;8.616;2023-02-03T10:25:11;2.75;;;1.08;;
37677;SDS011;23517;50.390;8.616;2023-02-03T10:27:52;2.13;;;0.70;;
37677;SDS011;23517;50.390;8.616;2023-02-03T10:30:24;3.22;;;0.75;;
37677;SDS011;23517;50.390;8.616;2023-02-03T10:32:54;3.78;;;1.10;;
37677;SDS011;23517;50.390;8.616;2023-02-03T10:35:31;2.25;;;0.80;;
37677;SDS011;23517;50.390;8.616;2023-02-03T10:38:06;3.20;;;0.80;;
37677;SDS011;23517;50.390;8.616;2023-02-03T10:40:44;5.65;;;1.02;;
37677;SDS011;23517;50.390;8.616;2023-02-03T10:43:11;4.60;;;0.80;;
37677;SDS011;23517;50.390;8.616;2023-02-03T10:45:57;6.75;;;1.02;;
37677;SDS011;23517;50.390;8.616;2023-02-03T10:48:24;3.33;;;0.85;;
37677;SDS011;23517;50.390;8.616;2023-02-03T10:50:51;2.35;;;0.88;;
37677;SDS011;23517;50.390;8.616;2023-02-03T10:53:36;6.55;;;0.95;;
37677;SDS011;23517;50.390;8.616;2023-02-03T10:56:04;4.20;;;0.98;;
37677;SDS011;23517;50.390;8.616;2023-02-03T10:58:37;6.10;;;2.60;;
37677;SDS011;23517;50.390;8.616;2023-02-03T11:01:08;5.13;;;2.20;;
37677;SDS011;23517;50.390;8.616;2023-02-03T11:03:40;2.75;;;1.20;;
37677;SDS011;23517;50.390;8.616;2023-02-03T11:06:29;5.40;;;1.45;;
37677;SDS011;23517;50.390;8.616;2023-02-03T11:09:01;1.65;;;0.80;;
37677;SDS011;23517;50.390;8.616;2023-02-03T11:11:47;3.78;;;1.00;;
37677;SDS011;23517;50.390;8.616;2023-02-03T11:14:28;2.10;;;0.77;;
37677;SDS011;23517;50.390;8.616;2023-02-03T11:17:16;3.38;;;0.95;;
37677;SDS011;23517;50.390;8.616;2023-02-03T11:19:52;1.98;;;0.75;;
37677;SDS011;23517;50.390;8.616;2023-02-03T11:22:31;5.40;;;1.38;;
37677;SDS011;23517;50.390;8.616;2023-02-03T11:25:03;3.22;;;1.00;;
37677;SDS011;23517;50.390;8.616;2023-02-03T11:27:42;2.83;;;1.00;;
37677;SDS011;23517;50.390;8.616;2023-02-03T11:30:26;2.28;;;0.60;;
37677;SDS011;23517;50.390;8.616;2023-02-03T11:33:00;1.55;;;0.70;;
37677;SDS011;23517;50.390;8.616;2023-02-03T11:35:28;1.60;;;0.82;;
37677;SDS011;23517;50.390;8.616;2023-02-03T11:37:57;1.45;;;0.68;;
37677;SDS011;23517;50.390;8.616;2023-02-03T11:40:27;1.38;;;0.68;;
37677;SDS011;23517;50.390;8.616;2023-02-03T11:45:24;1.95;;;0.88;;
37677;SDS011;23517;50.390;8.616;2023-02-03T11:48:17;1.58;;;0.50;;
37677;SDS011;23517;50.390;8.616;2023-02-03T12:17:44;0.70;;;0.50;;
37677;SDS011;23517;50.390;8.616;2023-02-03T12:21:06;1.85;;;0.73;;
37677;SDS011;23517;50.390;8.616;2023-02-03T12:24:07;1.27;;;0.60;;
37677;SDS011;23517;50.390;8.616;2023-02-03T12:29:50;3.00;;;0.70;;
37677;SDS011;23517;50.390;8.616;2023-02-03T12:32:36;2.78;;;0.73;;
37677;SDS011;23517;50.390;8.616;2023-02-03T12:35:14;1.10;;;0.70;;
37677;SDS011;23517;50.390;8.616;2023-02-03T12:38:04;0.75;;;0.50;;
37677;SDS011;23517;50.390;8.616;2023-02-03T12:41:10;2.25;;;0.68;;
37677;SDS011;23517;50.390;8.616;2023-02-03T12:43:43;0.73;;;0.70;;
37677;SDS011;23517;50.390;8.616;2023-02-03T12:52:13;1.08;;;0.70;;
37677;SDS011;23517;50.390;8.616;2023-02-03T12:54:48;4.13;;;1.58;;
37677;SDS011;23517;50.390;8.616;2023-02-03T12:57:47;2.20;;;1.10;;
37677;SDS011;23517;50.390;8.616;2023-02-03T13:14:49;2.20;;;1.17;;
37677;SDS011;23517;50.390;8.616;2023-02-03T13:17:26;2.85;;;1.30;;
37677;SDS011;23517;50.390;8.616;2023-02-03T13:20:29;1.50;;;1.20;;
37677;SDS011;23517;50.390;8.616;2023-02-03T13:23:04;3.33;;;2.42;;
37677;SDS011;23517;50.390;8.616;2023-02-03T13:28:17;2.13;;;1.60;;
37677;SDS011;23517;50.390;8.616;2023-02-03T13:40:36;2.67;;;2.00;;
37677;SDS011;23517;50.390;8.616;2023-02-03T13:43:25;4.22;;;2.35;;
37677;SDS011;23517;50.390;8.616;2023-02-03T13:46:04;2.80;;;2.03;;
37677;SDS011;23517;50.390;8.616;2023-02-03T13:48:34;3.05;;;2.25;;
37677;SDS011;23517;50.390;8.616;2023-02-03T13:51:15;2.85;;;2.00;;
37677;SDS011;23517;50.390;8.616;2023-02-03T13:53:47;2.85;;;2.30;;
37677;SDS011;23517;50.390;8.616;2023-02-03T13:56:18;1.90;;;1.50;;
37677;SDS011;23517;50.390;8.616;2023-02-03T14:01:40;3.60;;;1.77;;
37677;SDS011;23517;50.390;8.616;2023-02-03T14:04:49;2.40;;;1.90;;
37677;SDS011;23517;50.390;8.616;2023-02-03T14:06:57;2.58;;;1.90;;
37677;SDS011;23517;50.390;8.616;2023-02-03T14:09:36;3.63;;;2.13;;
37677;SDS011;23517;50.390;8.616;2023-02-03T14:12:17;3.10;;;2.20;;
37677;SDS011;23517;50.390;8.616;2023-02-03T14:15:16;2.67;;;2.03;;
37677;SDS011;23517;50.390;8.616;2023-02-03T14:17:57;2.67;;;1.92;;
37677;SDS011;23517;50.390;8.616;2023-02-03T14:21:08;5.38;;;2.47;;
37677;SDS011;23517;50.390;8.616;2023-02-03T14:23:47;3.67;;;2.60;;
37677;SDS011;23517;50.390;8.616;2023-02-03T14:26:21;4.75;;;2.97;;
37677;SDS011;23517;50.390;8.616;2023-02-03T14:28:55;2.80;;;2.40;;
37677;SDS011;23517;50.390;8.616;2023-02-03T14:31:24;3.92;;;2.78;;
37677;SDS011;23517;50.390;8.616;2023-02-03T14:34:00;3.97;;;2.70;;
37677;SDS011;23517;50.390;8.616;2023-02-03T14:41:56;6.43;;;3.22;;
37677;SDS011;23517;50.390;8.616;2023-02-03T14:44:52;5.68;;;3.50;;
37677;SDS011;23517;50.390;8.616;2023-02-03T14:59:47;5.32;;;3.83;;
37677;SDS011;23517;50.390;8.616;2023-02-03T15:05:46;4.53;;;4.07;;
37677;SDS011;23517;50.390;8.616;2023-02-03T15:11:25;8.57;;;3.80;;
37677;SDS011;23517;50.390;8.616;2023-02-03T15:13:54;7.32;;;4.20;;
37677;SDS011;23517;50.390;8.616;2023-02-03T15:16:44;5.80;;;3.65;;
37677;SDS011;23517;50.390;8.616;2023-02-03T15:19:37;5.15;;;3.38;;
37677;SDS011;23517;50.390;8.616;2023-02-03T15:25:03;4.63;;;3.35;;
37677;SDS011;23517;50.390;8.616;2023-02-03T15:27:43;5.22;;;3.83;;
37677;SDS011;23517;50.390;8.616;2023-02-03T15:30:19;3.60;;;3.30;;
37677;SDS011;23517;50.390;8.616;2023-02-03T15:32:58;6.05;;;3.40;;
37677;SDS011;23517;50.390;8.616;2023-02-03T15:35:32;3.83;;;3.20;;
37677;SDS011;23517;50.390;8.616;2023-02-03T15:38:02;4.57;;;3.63;;
37677;SDS011;23517;50.390;8.616;2023-02-03T15:40:43;5.07;;;3.63;;
37677;SDS011;23517;50.390;8.616;2023-02-03T15:43:20;7.88;;;3.70;;
37677;SDS011;23517;50.390;8.616;2023-02-03T15:46:25;4.90;;;3.70;;
37677;SDS011;23517;50.390;8.616;2023-02-03T15:49:13;5.47;;;3.65;;
37677;SDS011;23517;50.390;8.616;2023-02-03T15:52:18;8.35;;;4.47;;
37677;SDS011;23517;50.390;8.616;2023-02-03T15:54:48;6.85;;;3.40;;
37677;SDS011;23517;50.390;8.616;2023-02-03T15:57:34;5.97;;;3.78;;
37677;SDS011;23517;50.390;8.616;2023-02-03T16:00:10;5.95;;;3.90;;
37677;SDS011;23517;50.390;8.616;2023-02-03T16:02:58;5.88;;;3.45;;
37677;SDS011;23517;50.390;8.616;2023-02-03T16:05:32;5.43;;;3.72;;
37677;SDS011;23517;50.390;8.616;2023-02-03T16:13:51;5.65;;;4.57;;
37677;SDS011;23517;50.390;8.616;2023-02-03T16:16:29;6.43;;;4.43;;
37677;SDS011;23517;50.390;8.616;2023-02-03T16:19:05;6.70;;;4.97;;
37677;SDS011;23517;50.390;8.616;2023-02-03T16:27:29;7.85;;;5.15;;
37677;SDS011;23517;50.390;8.616;2023-02-03T16:33:03;9.38;;;5.68;;
37677;SDS011;23517;50.390;8.616;2023-02-03T16:35:52;10.85;;;5.65;;
37677;SDS011;23517;50.390;8.616;2023-02-03T16:38:45;10.60;;;5.90;;
37677;SDS011;23517;50.390;8.616;2023-02-03T16:41:32;16.80;;;8.75;;
37677;SDS011;23517;50.390;8.616;2023-02-03T16:44:18;10.93;;;6.30;;
37677;SDS011;23517;50.390;8.616;2023-02-03T16:47:07;9.25;;;5.80;;
37677;SDS011;23517;50.390;8.616;2023-02-03T16:50:10;11.32;;;6.65;;
37677;SDS011;23517;50.390;8.616;2023-02-03T16:53:11;9.05;;;5.82;;
37677;SDS011;23517;50.390;8.616;2023-02-03T16:55:41;9.98;;;6.45;;
37677;SDS011;23517;50.390;8.616;2023-02-03T16:58:09;8.57;;;5.78;;
37677;SDS011;23517;50.390;8.616;2023-02-03T17:00:41;12.05;;;5.93;;
37677;SDS011;23517;50.390;8.616;2023-02-03T17:03:11;8.30;;;5.78;;
37677;SDS011;23517;50.390;8.616;2023-02-03T17:05:41;10.48;;;5.82;;
37677;SDS011;23517;50.390;8.616;2023-02-03T17:08:09;6.88;;;5.60;;
37677;SDS011;23517;50.390;8.616;2023-02-03T17:10:37;13.80;;;5.55;;
37677;SDS011;23517;50.390;8.616;2023-02-03T17:13:06;11.13;;;6.32;;
37677;SDS011;23517;50.390;8.616;2023-02-03T17:15:33;8.85;;;5.80;;
37677;SDS011;23517;50.390;8.616;2023-02-03T17:18:07;11.38;;;7.00;;
37677;SDS011;23517;50.390;8.616;2023-02-03T17:20:34;12.70;;;5.80;;
37677;SDS011;23517;50.390;8.616;2023-02-03T17:23:02;7.88;;;4.93;;
37677;SDS011;23517;50.390;8.616;2023-02-03T17:25:30;7.97;;;4.57;;
37677;SDS011;23517;50.390;8.616;2023-02-03T17:28:02;9.35;;;4.03;;
37677;SDS011;23517;50.390;8.616;2023-02-03T17:30:30;13.65;;;3.65;;
37677;SDS011;23517;50.390;8.616;2023-02-03T17:33:01;8.23;;;3.10;;
37677;SDS011;23517;50.390;8.616;2023-02-03T17:35:43;7.30;;;4.18;;
37677;SDS011;23517;50.390;8.616;2023-02-03T17:38:11;7.43;;;3.00;;
37677;SDS011;23517;50.390;8.616;2023-02-03T17:40:42;14.50;;;3.35;;
37677;SDS011;23517;50.390;8.616;2023-02-03T17:43:27;13.60;;;4.05;;
37677;SDS011;23517;50.390;8.616;2023-02-03T17:46:17;17.45;;;3.15;;